^^
Saratoga-Weather Station Historical Data
Daily Summary for October 02, 2022 Units:  English    Metric   Both
Daily Weekly Monthly Yearly Custom
  High: Low: Average:
Temperature: 55.2 °F 54.5 °F 55 °F
Dew Point: 53.2 °F 52.3 °F 52.9 °F
Humidity: 94% 91% 93%
Wind Speed: 6mph 0mph 1.9mph
Wind Gust: 9mph - -
Wind- - WSW
Pressure: 30.1 in 30 in -
Precipitation: 0 in    
Historical Graphs
 
 
Tabular Data for October 02, 2022
Time Temperature Dew Point Pressure Wind Wind Speed Wind Gust Humidity Rainfall Rate (Hourly) solar
00:01 55 °F 53.1 °F 30 in West 0.9 mph 4 mph 93% 0.04 in 0 W/m2
00:06 55 °F 53.1 °F 30 in West 0.9 mph 3 mph 93% 0.04 in 0 W/m2
00:11 55 °F 53.1 °F 30 in NNW 0.9 mph 4 mph 93% 0.03 in 0 W/m2
00:16 55 °F 53.1 °F 30 in Calm   2 mph 93% 0.02 in 0 W/m2
00:21 54.9 °F 52.9 °F 30 in NW 2.9 mph 4 mph 93% 0.01 in 0 W/m2
00:26 54.7 °F 52.7 °F 30 in Calm     93% 0 in 0 W/m2
00:31 54.5 °F 52.5 °F 30 in WNW 4 mph 4 mph 93% 0 in 0 W/m2
00:36 54.5 °F 52.5 °F 30 in Calm   2 mph 93% 0 in 0 W/m2
00:41 54.5 °F 52.9 °F 30.1 in West 2 mph 4 mph 94% 0 in 0 W/m2
00:46 54.7 °F 53.1 °F 30.1 in WSW 4 mph 7 mph 94% 0 in 0 W/m2
00:52 54.7 °F 53.1 °F 30.1 in NW 2 mph 4 mph 94% 0 in 0 W/m2
00:57 54.7 °F 53.1 °F 30.1 in West 4 mph 7 mph 94% 0 in 0 W/m2
01:02 54.9 °F 53.2 °F 30.1 in WSW 4.9 mph 7 mph 94% 0 in 0 W/m2
01:07 55 °F 53.1 °F 30.1 in WNW 0.9 mph 6 mph 93% 0 in 0 W/m2
01:12 55 °F 53.1 °F 30.1 in West 2.9 mph 6 mph 93% 0 in 0 W/m2
01:17 55.2 °F 53.2 °F 30.1 in SW 6 mph 9 mph 93% 0 in 0 W/m2
01:22 55.2 °F 53.2 °F 30.1 in West 0.9 mph 8 mph 93% 0 in 0 W/m2
01:27 55.2 °F 53.2 °F 30.1 in WNW 2.9 mph 9 mph 93% 0 in 0 W/m2
01:32 55.2 °F 53.2 °F 30.1 in WNW 2 mph 4 mph 93% 0 in 0 W/m2
01:37 55.2 °F 52.9 °F 30.1 in WSW 0.9 mph 8 mph 92% 0 in 0 W/m2
01:42 55.2 °F 52.9 °F 30.1 in West 4 mph 9 mph 92% 0 in 0 W/m2
01:47 55.2 °F 52.9 °F 30.1 in SSE 0.9 mph 3 mph 92% 0 in 0 W/m2
01:52 55.2 °F 52.9 °F 30.1 in WSW 0.9 mph 6 mph 92% 0 in 0 W/m2
01:57 55.2 °F 52.9 °F 30.1 in Calm   3 mph 92% 0 in 0 W/m2
02:02 55.2 °F 52.9 °F 30.1 in SW 4 mph 7 mph 92% 0 in 0 W/m2
02:07 55.2 °F 52.9 °F 30.1 in NW 0.9 mph 2 mph 92% 0 in 0 W/m2
02:12 55.2 °F 52.9 °F 30.1 in WSW 0.9 mph 2 mph 92% 0 in 0 W/m2
02:17 55.2 °F 52.7 °F 30.1 in Calm   2 mph 91% 0 in 0 W/m2
02:22 55 °F 52.7 °F 30.1 in West 2 mph 3 mph 92% 0 in 0 W/m2
02:27 55 °F 52.7 °F 30.1 in WSW 2 mph 2 mph 92% 0 in 0 W/m2
02:32 55 °F 52.7 °F 30.1 in SW 0.9 mph 1 mph 92% 0 in 0 W/m2
02:37 54.9 °F 52.5 °F 30.1 in NW 0.9 mph 4 mph 92% 0 in 0 W/m2
02:42 54.9 °F 52.5 °F 30.1 in WNW 0.9 mph 4 mph 92% 0 in 0 W/m2
02:47 54.9 °F 52.5 °F 30.1 in West 0.9 mph 2 mph 92% 0 in 0 W/m2
02:52 54.9 °F 52.5 °F 30.1 in Calm   2 mph 92% 0 in 0 W/m2
02:57 54.9 °F 52.5 °F 30.1 in SSW 2.9 mph 6 mph 92% 0 in 0 W/m2
03:02 54.7 °F 52.3 °F 30.1 in WNW 2.9 mph 3 mph 92% 0 in 0 W/m2
03:07 54.7 °F 52.3 °F 30.1 in SSE 2 mph 5 mph 92% 0 in 0 W/m2
03:12 54.7 °F 52.3 °F 30.1 in ENE 2.9 mph 3 mph 92% 0 in 0 W/m2
Juneau County Weather
Compliments of Weather Underground - 2 mb